Time;durP1;ratioP1;P1;durP2;ratioP2;P2;SDS_P1;SDS_P2;PMS_P1;PMS_P2;Temp;Humidity;BMP_temperature;BMP_pressure;BME280_temperature;BME280_humidity;BME280_pressure;Samples;Min_cycle;Max_cycle;Signal;HPM_P1;HPM_P2
2022/12/18 00:01:05;;;;;;;71.32;42.50;;;-7.60;99.90;;;;;;6081360;23;20279;-69
2022/12/18 00:03:33;;;;;;;67.35;43.47;;;-7.60;99.90;;;;;;6079133;23;20549;-69
2022/12/18 00:06:01;;;;;;;77.72;45.88;;;-7.50;99.90;;;;;;6086463;23;20223;-69
2022/12/18 00:08:29;;;;;;;71.63;44.72;;;-7.50;99.90;;;;;;6086888;23;20699;-69
2022/12/18 00:10:56;;;;;;;72.78;44.42;;;-7.50;99.90;;;;;;6085660;23;20235;-69
2022/12/18 00:13:23;;;;;;;70.65;41.85;;;-7.50;99.90;;;;;;6087314;23;20208;-69
2022/12/18 00:15:50;;;;;;;72.68;43.03;;;-7.50;99.90;;;;;;6082427;23;20225;-69
2022/12/18 00:18:18;;;;;;;71.85;45.58;;;-7.50;99.90;;;;;;6084672;23;20242;-69
2022/12/18 00:20:46;;;;;;;68.88;44.35;;;-7.50;99.90;;;;;;6084105;23;20672;-69
2022/12/18 00:23:13;;;;;;;67.65;43.50;;;-7.20;99.90;;;;;;6087031;23;20267;-69
2022/12/18 00:25:40;;;;;;;64.43;45.00;;;-7.60;99.90;;;;;;6085772;23;20606;-69
2022/12/18 00:28:07;;;;;;;69.72;45.10;;;-7.60;99.90;;;;;;6084367;23;20642;-69
2022/12/18 00:30:35;;;;;;;73.80;44.95;;;-7.60;99.90;;;;;;6087163;23;20189;-69
2022/12/18 00:33:02;;;;;;;74.60;44.85;;;-7.60;99.90;;;;;;6085263;23;20243;-70
2022/12/18 00:35:32;;;;;;;73.82;46.30;;;-7.70;99.90;;;;;;6081101;23;20230;-69
2022/12/18 00:37:59;;;;;;;70.25;46.40;;;-7.60;99.90;;;;;;6087179;23;20216;-70
2022/12/18 00:40:26;;;;;;;73.22;46.15;;;-7.70;99.90;;;;;;6085750;23;20268;-69
2022/12/18 00:42:55;;;;;;;68.93;45.88;;;-7.70;99.90;;;;;;6078856;23;20259;-70
2022/12/18 00:45:26;;;;;;;65.57;44.13;;;-7.80;99.90;;;;;;6082701;23;20204;-70
2022/12/18 00:47:53;;;;;;;70.10;42.42;;;-7.80;99.90;;;;;;6087738;23;20615;-70
2022/12/18 00:50:21;;;;;;;70.82;45.85;;;-7.80;99.90;;;;;;6085220;23;20265;-70
2022/12/18 00:52:50;;;;;;;78.70;46.28;;;-7.90;99.90;;;;;;6081491;23;20710;-69
2022/12/18 00:55:18;;;;;;;70.40;45.13;;;-8.00;99.90;;;;;;6082640;23;20540;-69
2022/12/18 00:57:45;;;;;;;69.35;44.10;;;-8.00;99.90;;;;;;6083286;23;20757;-69
2022/12/18 01:00:14;;;;;;;69.40;43.38;;;-8.00;99.90;;;;;;6090989;23;20274;-69
2022/12/18 01:02:41;;;;;;;74.30;45.67;;;-8.10;99.90;;;;;;6083675;23;20519;-69
2022/12/18 01:05:09;;;;;;;71.80;44.15;;;-8.10;99.90;;;;;;6085222;23;20650;-69
2022/12/18 01:07:37;;;;;;;70.03;45.20;;;-8.10;99.90;;;;;;6087803;23;20188;-69
2022/12/18 01:10:07;;;;;;;64.03;44.15;;;-8.20;99.90;;;;;;6083100;23;20254;-69
2022/12/18 01:12:34;;;;;;;72.53;49.35;;;-8.20;99.90;;;;;;6085410;23;20218;-70
2022/12/18 01:15:02;;;;;;;70.40;47.40;;;-8.30;99.90;;;;;;6087048;23;20250;-70
2022/12/18 01:17:28;;;;;;;73.07;45.95;;;-8.30;99.90;;;;;;6087286;23;20359;-69
2022/12/18 01:19:55;;;;;;;72.45;49.45;;;-8.40;99.90;;;;;;6084866;23;20189;-69
2022/12/18 01:22:23;;;;;;;76.63;49.90;;;-8.40;99.90;;;;;;6085462;23;20646;-69
2022/12/18 01:24:50;;;;;;;69.43;45.40;;;-8.40;99.90;;;;;;6081635;23;20261;-69
2022/12/18 01:27:18;;;;;;;75.47;44.85;;;-8.40;99.90;;;;;;6090118;23;20267;-70
2022/12/18 01:29:46;;;;;;;71.38;46.60;;;-8.30;99.90;;;;;;6082882;23;20191;-69
2022/12/18 01:32:13;;;;;;;72.28;48.85;;;-8.30;99.90;;;;;;6087139;23;20296;-69
2022/12/18 01:34:40;;;;;;;73.70;48.92;;;-8.30;99.90;;;;;;6086784;23;20316;-69
2022/12/18 01:37:07;;;;;;;70.95;46.47;;;-8.00;99.90;;;;;;6089638;23;20662;-70
2022/12/18 01:39:34;;;;;;;72.78;48.47;;;-8.30;99.90;;;;;;6086240;23;20635;-70
2022/12/18 01:42:10;;;;;;;71.07;48.40;;;-8.40;99.90;;;;;;6084395;23;20193;-69
2022/12/18 01:45:06;;;;;;;81.35;51.03;;;-8.40;99.90;;;;;;6083987;23;20282;-70
2022/12/18 01:47:37;;;;;;;71.20;45.60;;;-8.40;99.90;;;;;;6082609;23;20222;-69
2022/12/18 01:50:08;;;;;;;73.63;49.92;;;-8.30;99.90;;;;;;6085529;23;20613;-70
2022/12/18 01:52:37;;;;;;;70.35;44.83;;;-8.30;99.90;;;;;;6089298;23;20683;-69
2022/12/18 01:55:06;;;;;;;72.43;48.00;;;-8.30;99.90;;;;;;6089102;23;20188;-70
2022/12/18 01:57:34;;;;;;;75.13;46.20;;;-8.30;99.90;;;;;;6082276;23;20674;-70
2022/12/18 02:00:08;;;;;;;69.45;46.00;;;-8.30;99.90;;;;;;6081915;23;20203;-70
2022/12/18 02:02:35;;;;;;;72.13;50.10;;;-8.40;99.90;;;;;;6091134;23;20184;-69
2022/12/18 02:05:04;;;;;;;73.93;47.67;;;-8.40;99.90;;;;;;6088987;23;20199;-70
2022/12/18 02:07:40;;;;;;;71.35;46.60;;;-8.30;99.90;;;;;;6088631;23;20216;-69
2022/12/18 02:10:14;;;;;;;67.60;42.65;;;-8.30;99.90;;;;;;6088051;23;20541;-69
2022/12/18 02:12:46;;;;;;;69.32;43.40;;;-8.30;99.90;;;;;;6084179;23;20291;-70
2022/12/18 02:15:20;;;;;;;74.05;46.80;;;-8.30;99.90;;;;;;6088229;23;20220;-69
2022/12/18 02:17:53;;;;;;;74.75;44.53;;;-8.30;99.90;;;;;;6086695;23;20192;-70
2022/12/18 02:20:29;;;;;;;76.05;42.67;;;-8.30;99.90;;;;;;6086132;23;20666;-70
2022/12/18 02:23:09;;;;;;;64.18;39.63;;;-8.30;99.90;;;;;;6086768;23;20188;-70
2022/12/18 02:25:58;;;;;;;78.15;45.28;;;-8.20;99.90;;;;;;6087125;23;20291;-69
2022/12/18 02:28:31;;;;;;;63.63;43.30;;;-8.30;99.90;;;;;;6097513;23;20570;-69
2022/12/18 02:31:02;;;;;;;67.65;42.88;;;-8.30;99.90;;;;;;6084075;23;20188;-69
2022/12/18 02:33:31;;;;;;;66.55;41.90;;;-8.30;99.90;;;;;;6070379;23;20248;-70
2022/12/18 02:36:01;;;;;;;64.93;39.88;;;-8.30;99.90;;;;;;6087175;23;20476;-69
2022/12/18 02:38:29;;;;;;;68.03;43.92;;;-8.20;99.90;;;;;;6085205;23;20192;-69
2022/12/18 02:40:59;;;;;;;72.40;45.40;;;-8.10;99.90;;;;;;6087034;23;20263;-69
2022/12/18 02:43:26;;;;;;;67.40;41.28;;;-8.30;99.90;;;;;;6086193;23;20193;-69
2022/12/18 02:45:56;;;;;;;67.22;42.15;;;-8.30;99.90;;;;;;6086553;23;20666;-69
2022/12/18 02:48:25;;;;;;;68.25;40.58;;;-8.30;99.90;;;;;;6089832;23;20195;-69
2022/12/18 02:51:00;;;;;;;61.85;40.88;;;-8.30;99.90;;;;;;6081799;23;20263;-70
2022/12/18 02:53:34;;;;;;;66.28;38.97;;;-8.20;99.90;;;;;;6082865;23;21205;-70
2022/12/18 02:56:10;;;;;;;63.78;40.30;;;-8.20;99.90;;;;;;6090575;23;20198;-69
2022/12/18 02:58:48;;;;;;;61.35;38.25;;;-7.90;99.90;;;;;;6084867;23;20184;-69
2022/12/18 03:01:21;;;;;;;58.15;37.75;;;-8.20;99.90;;;;;;6085291;23;20269;-69
2022/12/18 03:03:52;;;;;;;69.00;40.53;;;-8.20;99.90;;;;;;6090662;23;20516;-69
2022/12/18 03:06:26;;;;;;;59.22;35.33;;;-8.20;99.90;;;;;;6089524;23;20196;-69
2022/12/18 03:08:58;;;;;;;63.10;37.30;;;-8.10;99.90;;;;;;6087418;23;20676;-70
2022/12/18 03:14:17;;;;;;;59.58;41.08;;;-8.10;99.90;;;;;;6088125;23;20201;-69
2022/12/18 03:16:46;;;;;;;65.10;41.30;;;-8.10;99.90;;;;;;6086784;23;20272;-69
2022/12/18 03:19:18;;;;;;;62.35;37.75;;;-7.90;99.90;;;;;;6092801;23;20279;-69
2022/12/18 03:21:48;;;;;;;59.63;37.45;;;-8.10;99.90;;;;;;6090712;23;20275;-69
2022/12/18 03:24:19;;;;;;;60.08;37.78;;;-8.10;99.90;;;;;;6082425;23;20303;-69
2022/12/18 03:26:51;;;;;;;55.38;34.83;;;-8.10;99.90;;;;;;6086400;23;20794;-69
2022/12/18 03:29:22;;;;;;;59.42;38.17;;;-8.10;99.90;;;;;;6085188;23;20231;-70
2022/12/18 03:31:55;;;;;;;59.90;36.65;;;-8.20;99.90;;;;;;6083798;23;20686;-69
2022/12/18 03:34:26;;;;;;;63.03;39.50;;;-8.20;99.90;;;;;;6085262;23;20250;-68
2022/12/18 03:36:54;;;;;;;57.60;38.13;;;-8.20;99.90;;;;;;6087037;23;20263;-70
2022/12/18 03:39:21;;;;;;;60.25;39.00;;;-8.20;99.90;;;;;;6078618;23;20192;-70
2022/12/18 03:41:58;;;;;;;64.93;39.95;;;-8.10;99.90;;;;;;6088596;23;20549;-69
2022/12/18 03:44:31;;;;;;;55.65;38.53;;;-8.10;99.90;;;;;;6078666;23;20224;-69
2022/12/18 03:47:05;;;;;;;55.38;34.67;;;-8.10;99.90;;;;;;6084622;23;20192;-69
2022/12/18 03:49:39;;;;;;;56.67;36.33;;;-8.20;99.90;;;;;;6081719;23;20218;-69
2022/12/18 03:52:11;;;;;;;52.97;34.00;;;-8.20;99.90;;;;;;6088364;23;20661;-69
2022/12/18 03:54:41;;;;;;;53.80;33.83;;;-8.20;99.90;;;;;;6086145;23;20211;-69
2022/12/18 03:57:15;;;;;;;56.55;37.55;;;-7.90;99.90;;;;;;6090870;23;20200;-69
2022/12/18 03:59:45;;;;;;;57.17;37.78;;;-8.20;99.90;;;;;;6083275;23;20211;-68
2022/12/18 04:02:12;;;;;;;55.40;36.50;;;-8.20;99.90;;;;;;6083823;23;20271;-69
2022/12/18 04:04:41;;;;;;;59.05;37.63;;;-8.20;99.90;;;;;;6088921;23;20191;-69
2022/12/18 04:07:08;;;;;;;56.25;35.17;;;-8.20;99.90;;;;;;6092584;23;20219;-69
2022/12/18 04:09:38;;;;;;;49.10;34.97;;;-8.20;99.90;;;;;;6091642;23;20359;-68
2022/12/18 04:12:05;;;;;;;55.00;33.97;;;-8.30;99.90;;;;;;6091190;23;20215;-68
2022/12/18 04:14:35;;;;;;;52.20;32.08;;;-8.30;99.90;;;;;;6094298;23;20311;-69
2022/12/18 04:17:02;;;;;;;51.38;33.33;;;-8.30;99.90;;;;;;6090106;23;20230;-68
2022/12/18 04:19:29;;;;;;;51.63;34.03;;;-8.30;99.90;;;;;;6095394;23;20271;-69
2022/12/18 04:21:56;;;;;;;56.70;32.90;;;-8.30;99.90;;;;;;6088954;23;20180;-68
2022/12/18 04:24:23;;;;;;;48.40;33.70;;;-8.00;99.90;;;;;;6085648;23;20211;-69
2022/12/18 04:26:51;;;;;;;52.10;33.40;;;-8.30;99.90;;;;;;6089451;23;20195;-69
2022/12/18 04:29:18;;;;;;;49.60;35.28;;;-8.20;99.90;;;;;;6086165;23;20287;-69
2022/12/18 04:31:46;;;;;;;47.75;32.28;;;-8.30;99.90;;;;;;6088900;23;20195;-69
2022/12/18 04:34:14;;;;;;;45.60;30.33;;;-8.20;99.90;;;;;;6085573;23;20287;-68
2022/12/18 04:36:41;;;;;;;52.45;33.17;;;-8.30;99.90;;;;;;6090110;23;20276;-69
2022/12/18 04:39:08;;;;;;;51.55;31.00;;;-8.30;99.90;;;;;;6086935;23;20188;-68
2022/12/18 04:41:35;;;;;;;49.67;28.83;;;-8.30;99.90;;;;;;6093233;23;20206;-68
2022/12/18 04:44:03;;;;;;;49.53;29.85;;;-8.40;99.90;;;;;;6095646;23;20188;-68
2022/12/18 04:46:30;;;;;;;45.38;30.65;;;-8.50;99.90;;;;;;6091572;23;20218;-68
2022/12/18 04:48:58;;;;;;;48.22;32.65;;;-8.50;99.90;;;;;;6086498;23;20192;-68
2022/12/18 04:51:25;;;;;;;51.38;31.10;;;-8.60;99.90;;;;;;6089077;23;20610;-69
2022/12/18 04:53:53;;;;;;;47.03;30.98;;;-8.60;99.90;;;;;;6089611;23;20216;-69
2022/12/18 04:56:20;;;;;;;52.20;29.67;;;-8.60;99.90;;;;;;6084364;23;20212;-69
2022/12/18 04:58:47;;;;;;;52.35;32.40;;;-8.70;99.90;;;;;;6083405;23;20224;-69
2022/12/18 05:01:16;;;;;;;50.60;31.35;;;-8.70;99.90;;;;;;6088850;23;20188;-69
2022/12/18 05:03:44;;;;;;;51.42;34.20;;;-8.70;99.90;;;;;;6097558;23;20656;-68
2022/12/18 05:06:13;;;;;;;52.42;34.38;;;-8.60;99.90;;;;;;6090152;23;20192;-68
2022/12/18 05:08:41;;;;;;;43.78;31.02;;;-8.60;99.90;;;;;;6080525;23;20295;-68
2022/12/18 05:11:09;;;;;;;49.10;33.70;;;-8.60;99.90;;;;;;6090898;23;20212;-68
2022/12/18 05:13:37;;;;;;;51.40;31.98;;;-8.70;99.90;;;;;;6082816;23;20211;-68
2022/12/18 05:16:06;;;;;;;47.95;29.40;;;-8.70;99.90;;;;;;6085777;23;20476;-68
2022/12/18 05:18:34;;;;;;;48.85;33.15;;;-8.70;99.90;;;;;;6085010;23;20534;-68
2022/12/18 05:21:01;;;;;;;51.55;31.98;;;-8.80;99.90;;;;;;6082956;23;20259;-68
2022/12/18 05:23:30;;;;;;;50.55;30.10;;;-8.80;99.90;;;;;;6086047;23;20183;-68
2022/12/18 05:25:59;;;;;;;47.95;31.52;;;-8.80;99.90;;;;;;6094337;23;20189;-68
2022/12/18 05:28:29;;;;;;;53.75;32.45;;;-8.80;99.90;;;;;;6096199;23;20261;-69
2022/12/18 05:30:58;;;;;;;49.00;30.02;;;-8.50;99.90;;;;;;6089043;23;20658;-69
2022/12/18 05:33:27;;;;;;;46.28;31.95;;;-8.80;99.90;;;;;;6094584;23;20258;-69
2022/12/18 05:35:57;;;;;;;52.72;35.15;;;-8.80;99.90;;;;;;6090128;23;20783;-69
2022/12/18 05:38:26;;;;;;;50.83;33.05;;;-8.90;99.90;;;;;;6087713;23;20257;-69
2022/12/18 05:40:54;;;;;;;46.45;32.70;;;-9.00;99.90;;;;;;6083872;23;20193;-69
2022/12/18 05:43:23;;;;;;;52.53;35.83;;;-9.00;99.90;;;;;;6090525;23;21167;-69
2022/12/18 05:45:51;;;;;;;50.88;35.60;;;-9.00;99.90;;;;;;6086089;23;20208;-70
2022/12/18 05:48:19;;;;;;;53.45;37.38;;;-8.90;99.90;;;;;;6086881;23;20185;-74
2022/12/18 05:50:49;;;;;;;50.50;32.47;;;-9.00;99.90;;;;;;6088018;23;20210;-69
2022/12/18 05:53:17;;;;;;;51.70;32.80;;;-9.00;99.90;;;;;;6092873;23;20250;-69
2022/12/18 05:55:45;;;;;;;49.33;32.45;;;-8.70;99.90;;;;;;6095684;23;20630;-70
2022/12/18 05:58:14;;;;;;;48.15;32.55;;;-8.90;99.90;;;;;;6095307;23;20292;-70
2022/12/18 06:00:44;;;;;;;51.85;32.40;;;-8.60;99.90;;;;;;6077570;23;20185;-70
2022/12/18 06:03:13;;;;;;;47.33;30.20;;;-8.90;99.90;;;;;;6087722;23;20276;-70
2022/12/18 06:05:42;;;;;;;51.60;32.30;;;-8.90;99.90;;;;;;6080737;23;20622;-70
2022/12/18 06:08:10;;;;;;;50.00;33.45;;;-9.00;99.90;;;;;;6083748;23;20188;-70
2022/12/18 06:10:37;;;;;;;46.75;31.05;;;-8.80;99.90;;;;;;6083411;23;20193;-71
2022/12/18 06:13:05;;;;;;;49.67;30.17;;;-9.00;99.90;;;;;;6084289;23;20192;-71
2022/12/18 06:15:36;;;;;;;55.20;33.75;;;-9.00;99.90;;;;;;6081910;23;20270;-71
2022/12/18 06:18:04;;;;;;;54.78;32.30;;;-9.00;99.90;;;;;;6083727;23;20588;-70
2022/12/18 06:20:31;;;;;;;49.67;30.58;;;-9.00;99.90;;;;;;6079201;23;20197;-70
2022/12/18 06:22:58;;;;;;;48.95;29.38;;;-8.90;99.90;;;;;;6083360;23;20213;-70
2022/12/18 06:25:26;;;;;;;47.63;32.05;;;-9.10;99.90;;;;;;6083810;23;20192;-70
2022/12/18 06:27:53;;;;;;;51.25;33.97;;;-9.10;99.90;;;;;;6086210;23;20215;-70
2022/12/18 06:30:20;;;;;;;46.33;31.02;;;-9.20;99.90;;;;;;6084594;23;20216;-70
2022/12/18 06:32:51;;;;;;;48.25;33.10;;;-9.20;99.90;;;;;;6087787;23;20188;-70
2022/12/18 06:35:18;;;;;;;49.45;34.53;;;-9.30;99.90;;;;;;6086520;23;20212;-70
2022/12/18 06:37:45;;;;;;;48.88;31.92;;;-9.20;99.90;;;;;;6088453;23;20201;-71
2022/12/18 06:40:12;;;;;;;50.55;31.60;;;-9.20;99.90;;;;;;6081469;23;20189;-71
2022/12/18 06:42:40;;;;;;;51.92;35.17;;;-9.20;99.90;;;;;;6072337;23;20188;-70
2022/12/18 06:45:08;;;;;;;47.67;33.47;;;-8.90;99.90;;;;;;6082655;23;20311;-73
2022/12/18 06:47:35;;;;;;;51.45;31.60;;;-8.70;99.90;;;;;;6082281;23;20305;-76
2022/12/18 06:50:04;;;;;;;46.50;30.45;;;-8.70;99.90;;;;;;6084845;23;20648;-70
2022/12/18 06:52:33;;;;;;;42.72;29.50;;;-8.70;99.90;;;;;;6093230;23;20195;-70
2022/12/18 06:55:00;;;;;;;45.22;28.90;;;-8.70;99.90;;;;;;6090006;23;20243;-70
2022/12/18 06:57:27;;;;;;;44.47;30.60;;;-8.80;99.90;;;;;;6080965;23;20192;-70
2022/12/18 06:59:54;;;;;;;44.97;31.13;;;-8.80;99.90;;;;;;6087066;23;20234;-70
2022/12/18 07:02:22;;;;;;;45.80;31.48;;;-8.90;99.90;;;;;;6089872;23;20185;-70
2022/12/18 07:04:52;;;;;;;42.70;31.13;;;-9.00;99.90;;;;;;6091022;23;20322;-72
2022/12/18 07:07:21;;;;;;;43.55;31.55;;;-9.00;99.90;;;;;;6091380;23;20188;-70
2022/12/18 07:09:49;;;;;;;45.47;32.47;;;-9.10;99.90;;;;;;6085710;23;20283;-71
2022/12/18 07:12:16;;;;;;;46.47;31.88;;;-9.10;99.90;;;;;;6080598;23;20195;-71
2022/12/18 07:14:43;;;;;;;46.47;30.08;;;-9.10;99.90;;;;;;6081485;23;20250;-71
2022/12/18 07:17:10;;;;;;;39.67;26.55;;;-9.10;99.90;;;;;;6086973;23;20223;-70
2022/12/18 07:19:38;;;;;;;46.33;31.70;;;-9.10;99.90;;;;;;6091257;23;20275;-70
2022/12/18 07:22:05;;;;;;;43.95;31.50;;;-9.20;99.90;;;;;;6078242;23;20243;-71
2022/12/18 07:24:35;;;;;;;46.85;33.85;;;-9.20;99.90;;;;;;6093928;23;20187;-69
2022/12/18 07:27:03;;;;;;;46.10;32.38;;;-9.20;99.90;;;;;;6087771;23;20214;-69
2022/12/18 07:29:30;;;;;;;40.10;30.52;;;-9.10;99.90;;;;;;6088475;23;20192;-71
2022/12/18 07:31:57;;;;;;;46.10;31.23;;;-9.10;99.90;;;;;;6089466;23;20195;-70
2022/12/18 07:34:25;;;;;;;45.72;30.65;;;-9.10;99.90;;;;;;6082366;23;20216;-70
2022/12/18 07:36:52;;;;;;;43.88;30.38;;;-9.00;99.90;;;;;;6087347;23;20275;-69
2022/12/18 07:39:19;;;;;;;39.70;28.05;;;-9.00;99.90;;;;;;6087276;23;20188;-70
2022/12/18 07:42:30;;;;;;;47.22;28.67;;;-8.90;99.90;;;;;;6080765;23;20189;-70
2022/12/18 07:44:35;;;;;;;39.50;26.75;;;-8.90;99.90;;;;;;6084350;23;20206;-69
2022/12/18 07:47:03;;;;;;;40.78;27.25;;;-8.80;99.90;;;;;;6081413;23;20213;-70
2022/12/18 07:49:30;;;;;;;39.88;30.15;;;-8.70;99.90;;;;;;6086393;23;20188;-70
2022/12/18 07:51:58;;;;;;;44.03;29.52;;;-8.70;99.90;;;;;;6088951;23;20246;-69
2022/12/18 07:54:25;;;;;;;47.03;29.83;;;-8.70;99.90;;;;;;6081924;23;20574;-69
2022/12/18 07:56:54;;;;;;;43.22;29.52;;;-8.60;99.90;;;;;;6087339;23;20604;-69
2022/12/18 07:59:22;;;;;;;42.00;28.50;;;-8.60;99.90;;;;;;6088771;23;20652;-70
2022/12/18 08:01:49;;;;;;;40.70;28.02;;;-8.60;99.90;;;;;;6088920;23;20184;-69
2022/12/18 08:04:16;;;;;;;44.78;32.00;;;-8.50;99.90;;;;;;6089441;23;20259;-69
2022/12/18 08:06:43;;;;;;;40.85;28.05;;;-8.60;99.90;;;;;;6086797;23;20271;-70
2022/12/18 08:09:11;;;;;;;39.10;27.83;;;-8.60;99.90;;;;;;6088650;23;20196;-70
2022/12/18 08:11:38;;;;;;;43.03;29.10;;;-8.60;99.90;;;;;;6084204;23;20719;-69
2022/12/18 08:14:06;;;;;;;40.70;27.98;;;-8.60;99.90;;;;;;6085821;23;20199;-70
2022/12/18 08:16:34;;;;;;;41.35;27.70;;;-8.60;99.90;;;;;;6086462;23;20275;-70
2022/12/18 08:19:01;;;;;;;40.47;27.95;;;-8.50;99.90;;;;;;6088798;23;20189;-70
2022/12/18 08:21:30;;;;;;;39.42;28.15;;;-8.40;99.90;;;;;;6087960;23;20216;-70
2022/12/18 08:23:59;;;;;;;39.55;28.73;;;-8.30;99.90;;;;;;6089597;23;20185;-69
2022/12/18 08:26:27;;;;;;;38.58;28.10;;;-8.30;99.90;;;;;;6089256;23;20257;-71
2022/12/18 08:28:56;;;;;;;38.70;28.02;;;-8.10;99.90;;;;;;6090160;23;20211;-70
2022/12/18 08:31:30;;;;;;;39.20;27.60;;;-7.90;99.90;;;;;;6084380;23;20718;-70
2022/12/18 08:33:57;;;;;;;35.08;25.90;;;-8.10;99.90;;;;;;6089240;23;20242;-70
2022/12/18 08:36:26;;;;;;;38.60;28.00;;;-8.10;99.90;;;;;;6089217;23;20689;-69
2022/12/18 08:38:53;;;;;;;37.58;25.73;;;-8.00;99.90;;;;;;6090585;23;20211;-75
2022/12/18 08:41:22;;;;;;;37.80;26.10;;;-7.70;99.90;;;;;;6083163;23;20548;-77
2022/12/18 08:46:38;;;;;;;39.38;28.17;;;-7.70;99.90;;;;;;6088107;23;20203;-70
2022/12/18 08:49:07;;;;;;;40.70;26.88;;;-7.80;99.90;;;;;;6086459;23;20197;-71
2022/12/18 08:51:34;;;;;;;40.30;27.52;;;-7.70;99.90;;;;;;6084650;23;20196;-70
2022/12/18 08:54:01;;;;;;;39.25;28.92;;;-7.60;99.90;;;;;;6088772;23;20201;-70
2022/12/18 08:56:29;;;;;;;46.47;30.98;;;-7.50;99.90;;;;;;6089028;23;20204;-70
2022/12/18 08:58:57;;;;;;;42.03;28.23;;;-7.10;99.90;;;;;;6078040;23;20574;-70
2022/12/18 09:01:24;;;;;;;44.13;29.30;;;-6.80;99.90;;;;;;6090135;23;20273;-70
2022/12/18 09:03:53;;;;;;;39.83;27.30;;;-6.30;99.90;;;;;;6090115;23;20279;-71
2022/12/18 09:06:21;;;;;;;40.08;27.42;;;-5.90;99.90;;;;;;6090126;23;20201;-70
2022/12/18 09:08:49;;;;;;;36.65;26.48;;;-5.80;99.90;;;;;;6090110;23;20197;-70
2022/12/18 09:11:21;;;;;;;35.78;25.60;;;-5.70;99.90;;;;;;6090189;23;20200;-70
2022/12/18 09:13:48;;;;;;;39.45;26.92;;;-5.40;99.90;;;;;;6090243;23;20583;-70
2022/12/18 09:16:16;;;;;;;39.65;28.15;;;-5.10;99.90;;;;;;6083541;23;20374;-70
2022/12/18 09:18:43;;;;;;;38.45;26.08;;;-4.80;99.90;;;;;;6084701;23;20302;-70
2022/12/18 09:21:14;;;;;;;38.17;25.20;;;-4.90;99.90;;;;;;6082798;23;20558;-70
2022/12/18 09:23:41;;;;;;;37.40;26.10;;;-4.90;99.90;;;;;;6090650;23;20655;-71
2022/12/18 09:26:09;;;;;;;40.15;26.27;;;-4.80;99.90;;;;;;6088927;23;20244;-70
2022/12/18 09:28:36;;;;;;;33.55;25.10;;;-4.50;99.90;;;;;;6091540;23;20225;-70
2022/12/18 09:31:07;;;;;;;35.03;25.60;;;-4.50;99.90;;;;;;6090816;23;20197;-71
2022/12/18 09:33:34;;;;;;;36.53;25.25;;;-4.40;99.90;;;;;;6090528;23;20209;-70
2022/12/18 09:36:03;;;;;;;36.58;24.98;;;-4.20;99.90;;;;;;6090052;23;20212;-71
2022/12/18 09:38:32;;;;;;;32.83;23.45;;;-3.80;99.90;;;;;;6089395;23;20203;-71
2022/12/18 09:41:07;;;;;;;36.40;24.02;;;-3.40;99.90;;;;;;6090677;23;20193;-71
2022/12/18 09:43:38;;;;;;;33.85;22.55;;;-3.00;99.90;;;;;;6090259;23;20283;-71
2022/12/18 09:46:10;;;;;;;31.38;21.30;;;-2.50;99.90;;;;;;6090573;23;20745;-70
2022/12/18 09:48:41;;;;;;;30.05;21.48;;;-2.20;99.90;;;;;;6096953;23;20196;-72
2022/12/18 09:51:16;;;;;;;29.33;21.38;;;-1.90;99.90;;;;;;6116348;23;20195;-71
2022/12/18 09:53:51;;;;;;;31.95;22.98;;;-1.50;99.90;;;;;;6111755;23;20192;-71
2022/12/18 09:56:22;;;;;;;31.92;22.30;;;-1.20;99.90;;;;;;6118246;23;20263;-69
2022/12/18 09:58:56;;;;;;;32.42;24.40;;;-0.80;99.90;;;;;;6117623;23;20200;-71
2022/12/18 10:01:24;;;;;;;31.33;21.77;;;-0.70;99.90;;;;;;6118054;23;20203;-71
2022/12/18 10:03:52;;;;;;;32.65;24.63;;;-0.50;99.90;;;;;;6117650;23;20226;-71
2022/12/18 10:06:26;;;;;;;30.85;24.00;;;-0.40;99.90;;;;;;6106383;23;20226;-71
2022/12/18 10:09:02;;;;;;;32.92;23.85;;;-0.10;99.90;;;;;;6116300;23;20223;-70
2022/12/18 10:11:42;;;;;;;34.17;24.60;;;0.20;99.90;;;;;;6097493;23;20189;-70
2022/12/18 10:14:17;;;;;;;32.97;24.45;;;0.20;99.90;;;;;;6089723;23;20605;-69
2022/12/18 10:16:55;;;;;;;32.55;23.85;;;0.10;99.90;;;;;;6090076;23;20222;-70
2022/12/18 10:19:37;;;;;;;31.40;23.23;;;0.40;99.90;;;;;;6093083;23;20220;-70
2022/12/18 10:22:14;;;;;;;30.50;23.48;;;0.50;99.90;;;;;;6091195;23;20615;-70
2022/12/18 10:24:50;;;;;;;30.83;23.77;;;0.80;99.90;;;;;;6090411;23;20271;-70
2022/12/18 10:27:22;;;;;;;31.05;25.13;;;1.10;99.90;;;;;;6095580;23;20204;-70
2022/12/18 10:29:50;;;;;;;32.05;24.77;;;1.50;99.90;;;;;;6091729;23;20246;-70
2022/12/18 10:32:19;;;;;;;30.42;23.73;;;1.80;99.90;;;;;;6090915;23;20650;-71
2022/12/18 10:34:47;;;;;;;30.23;23.50;;;1.90;99.90;;;;;;6089858;23;20199;-70
2022/12/18 10:37:19;;;;;;;30.52;24.75;;;2.10;99.90;;;;;;6091259;23;20219;-71
2022/12/18 10:40:05;;;;;;;31.50;23.88;;;2.30;99.90;;;;;;6090516;23;20219;-71
2022/12/18 10:42:32;;;;;;;29.95;23.38;;;2.60;99.90;;;;;;6091309;23;20192;-70
2022/12/18 10:45:04;;;;;;;32.50;25.73;;;2.70;99.90;;;;;;6065429;23;20196;-70
2022/12/18 10:47:31;;;;;;;31.25;24.38;;;2.80;99.90;;;;;;6091744;23;20192;-71
2022/12/18 10:49:58;;;;;;;32.08;24.73;;;2.30;99.90;;;;;;6091947;23;20230;-70
2022/12/18 10:52:26;;;;;;;30.00;24.63;;;2.20;99.90;;;;;;6091626;23;20642;-71
2022/12/18 10:54:58;;;;;;;30.80;24.15;;;1.90;99.90;;;;;;6091306;23;20203;-71
2022/12/18 10:57:36;;;;;;;31.42;24.20;;;1.80;99.90;;;;;;6092736;23;20281;-71
2022/12/18 11:00:23;;;;;;;27.73;21.60;;;1.80;99.90;;;;;;6091913;23;20188;-71
2022/12/18 11:02:52;;;;;;;34.15;23.23;;;1.60;99.90;;;;;;6092141;23;20194;-70
2022/12/18 11:05:29;;;;;;;30.90;23.00;;;1.50;99.90;;;;;;6090892;23;20336;-71
2022/12/18 11:07:57;;;;;;;27.27;20.98;;;1.60;99.90;;;;;;6091937;23;20197;-70
2022/12/18 11:10:30;;;;;;;29.02;22.67;;;1.80;99.90;;;;;;6091079;23;20207;-70
2022/12/18 11:13:11;;;;;;;28.40;21.90;;;1.60;99.90;;;;;;6091135;23;20225;-71
2022/12/18 11:15:41;;;;;;;30.98;22.48;;;1.10;99.90;;;;;;6087209;23;20247;-71
2022/12/18 11:18:19;;;;;;;30.58;22.38;;;0.50;99.90;;;;;;6091082;23;20618;-70
2022/12/18 11:20:52;;;;;;;31.50;22.08;;;0.00;99.90;;;;;;6090624;23;20216;-70
2022/12/18 11:23:22;;;;;;;26.77;21.17;;;-0.10;99.90;;;;;;6089776;23;20188;-70
2022/12/18 11:25:55;;;;;;;31.88;21.73;;;-0.10;99.90;;;;;;6078547;23;20189;-71
2022/12/18 11:28:29;;;;;;;31.10;22.35;;;0.20;99.90;;;;;;6090602;23;20200;-70
2022/12/18 11:31:17;;;;;;;29.70;21.52;;;0.30;99.90;;;;;;6088129;23;20332;-71
2022/12/18 11:33:49;;;;;;;32.58;22.92;;;0.80;99.90;;;;;;6090523;23;20296;-71
2022/12/18 11:36:19;;;;;;;30.55;22.13;;;1.40;99.90;;;;;;6090476;23;20257;-71
2022/12/18 11:38:48;;;;;;;29.33;23.05;;;1.90;99.90;;;;;;6090429;23;20652;-71
2022/12/18 11:42:08;;;;;;;30.05;23.98;;;2.40;99.90;;;;;;6090685;23;20195;-71
2022/12/18 11:44:16;;;;;;;28.83;23.50;;;2.80;99.90;;;;;;6082497;23;20294;-71
2022/12/18 11:46:49;;;;;;;30.73;23.70;;;3.20;99.90;;;;;;6092012;23;20258;-71
2022/12/18 11:49:24;;;;;;;29.98;23.23;;;3.10;99.90;;;;;;6090972;23;20187;-71
2022/12/18 11:51:56;;;;;;;30.63;23.00;;;2.40;99.90;;;;;;6090460;23;20669;-71
2022/12/18 11:54:24;;;;;;;29.73;22.40;;;2.50;99.90;;;;;;6090498;23;20196;-71
2022/12/18 11:56:57;;;;;;;31.75;23.30;;;2.50;99.90;;;;;;6090129;23;20653;-71
2022/12/18 11:59:34;;;;;;;34.15;24.30;;;2.90;99.90;;;;;;6090004;23;20346;-71
2022/12/18 12:02:18;;;;;;;28.55;22.15;;;3.00;99.90;;;;;;6080325;23;20671;-72
2022/12/18 12:05:05;;;;;;;29.80;23.48;;;3.20;99.90;;;;;;6090486;23;20192;-72
2022/12/18 12:07:41;;;;;;;28.00;22.10;;;3.30;99.90;;;;;;6090630;23;20267;-71
2022/12/18 12:10:25;;;;;;;32.97;24.08;;;3.40;99.90;;;;;;6081071;23;20204;-71
2022/12/18 12:13:06;;;;;;;32.42;23.90;;;3.40;99.90;;;;;;6089841;23;20196;-72
2022/12/18 12:15:45;;;;;;;33.63;23.25;;;3.20;99.90;;;;;;6090623;23;20231;-71
2022/12/18 12:18:25;;;;;;;30.50;22.98;;;3.10;99.90;;;;;;6083604;23;20210;-71
2022/12/18 12:21:00;;;;;;;30.13;23.15;;;3.00;99.90;;;;;;6090719;23;20188;-71
2022/12/18 12:23:38;;;;;;;33.42;23.20;;;2.80;99.90;;;;;;6090613;23;20194;-70
2022/12/18 12:26:10;;;;;;;32.70;23.23;;;2.70;99.90;;;;;;6089259;23;20270;-72
2022/12/18 12:28:58;;;;;;;30.10;22.35;;;2.60;99.90;;;;;;6089863;23;20577;-71
2022/12/18 12:31:36;;;;;;;31.85;22.98;;;2.60;99.90;;;;;;6083077;23;20631;-72
2022/12/18 12:34:15;;;;;;;30.35;22.60;;;2.60;99.90;;;;;;6089709;23;20314;-71
2022/12/18 12:36:52;;;;;;;33.83;25.10;;;2.60;99.90;;;;;;6090386;23;20222;-71
2022/12/18 12:39:28;;;;;;;32.38;23.77;;;2.60;99.90;;;;;;6081943;23;20216;-71
2022/12/18 12:44:46;;;;;;;32.63;23.55;;;2.40;99.90;;;;;;6090053;23;20267;-71
2022/12/18 12:47:18;;;;;;;29.60;22.52;;;1.80;99.90;;;;;;6085228;23;20589;-71
2022/12/18 12:49:47;;;;;;;34.17;24.73;;;1.70;99.90;;;;;;6090742;23;20292;-71
2022/12/18 12:52:21;;;;;;;28.88;21.75;;;1.70;99.90;;;;;;6079881;23;20654;-71